createdAt,value
2018-08-17T00:04:36.000Z,1006.882
2018-08-17T00:14:36.000Z,1006.851
2018-08-17T00:24:36.000Z,1006.763
2018-08-17T00:34:36.000Z,1006.74
2018-08-17T00:44:36.000Z,1006.763
2018-08-17T00:54:36.000Z,1006.848
2018-08-17T01:04:36.000Z,1006.851
2018-08-17T01:14:37.000Z,1006.957
2018-08-17T01:24:37.000Z,1007.063
2018-08-17T01:34:37.000Z,1007.197
2018-08-17T01:44:37.000Z,1007.346
2018-08-17T01:54:37.000Z,1007.477
2018-08-17T02:04:37.000Z,1007.811
2018-08-17T02:14:37.000Z,1008.016
2018-08-17T02:24:37.000Z,1008.121
2018-08-17T02:34:37.000Z,1008.059
2018-08-17T02:44:37.000Z,1008.086
2018-08-17T02:54:37.000Z,1008.231
2018-08-17T03:04:37.000Z,1008.363
2018-08-17T03:14:37.000Z,1008.325
2018-08-17T03:24:37.000Z,1008.346
2018-08-17T03:34:37.000Z,1008.267
2018-08-17T03:44:37.000Z,1008.334
2018-08-17T03:54:37.000Z,1008.233
2018-08-17T04:04:37.000Z,1008.23
2018-08-17T04:14:37.000Z,1008.335
2018-08-17T04:24:37.000Z,1008.481
2018-08-17T04:34:37.000Z,1008.685
2018-08-17T04:44:37.000Z,1008.717
2018-08-17T04:54:37.000Z,1009.169
2018-08-17T05:04:37.000Z,1008.771
2018-08-17T05:14:37.000Z,1008.635
2018-08-17T05:24:37.000Z,1008.815
2018-08-17T05:34:37.000Z,1008.832
2018-08-17T05:44:37.000Z,1008.978
2018-08-17T05:54:37.000Z,1008.956
2018-08-17T06:04:37.000Z,1009.247
2018-08-17T06:14:37.000Z,1009.192
2018-08-17T06:24:37.000Z,1009.604
2018-08-17T06:34:37.000Z,1010.057
2018-08-17T06:44:37.000Z,1009.941
2018-08-17T06:54:37.000Z,1010.068
2018-08-17T07:04:37.000Z,1009.793
2018-08-17T07:14:37.000Z,1009.775
2018-08-17T07:24:37.000Z,1010.214
2018-08-17T07:34:37.000Z,1010.492
2018-08-17T07:44:37.000Z,1010.426
2018-08-17T07:54:37.000Z,1010.243
2018-08-17T08:04:37.000Z,1010.143
2018-08-17T08:14:37.000Z,1009.963
2018-08-17T08:24:37.000Z,1009.962
2018-08-17T08:34:37.000Z,1010.214
2018-08-17T08:44:37.000Z,1010.306
2018-08-17T08:54:37.000Z,1010.42
2018-08-17T09:04:37.000Z,1010.494
2018-08-17T09:14:38.000Z,1010.525
2018-08-17T09:24:38.000Z,1010.573
2018-08-17T09:34:38.000Z,1010.648
2018-08-17T09:44:38.000Z,1010.675
2018-08-17T09:54:38.000Z,1010.756
2018-08-17T10:04:38.000Z,1010.781
2018-08-17T10:14:38.000Z,1010.863
2018-08-17T10:24:38.000Z,1010.936
2018-08-17T10:34:38.000Z,1010.968
2018-08-17T10:44:38.000Z,1010.944
2018-08-17T10:54:41.000Z,1010.895
2018-08-17T11:04:38.000Z,1010.89
2018-08-17T11:14:38.000Z,1010.954
2018-08-17T11:24:42.000Z,1011.037
2018-08-17T11:34:38.000Z,1011.119
2018-08-17T11:44:38.000Z,1011.127
2018-08-17T11:54:38.000Z,1011.249
2018-08-17T12:04:38.000Z,1011.283
2018-08-17T12:14:38.000Z,1011.305
2018-08-17T12:24:38.000Z,1011.329
2018-08-17T12:34:42.000Z,1011.486
2018-08-17T12:44:38.000Z,1011.442
2018-08-17T12:54:38.000Z,1011.444
2018-08-17T13:04:38.000Z,1011.432
2018-08-17T13:14:38.000Z,1011.446
2018-08-17T13:24:38.000Z,1011.526
2018-08-17T13:34:38.000Z,1011.498
2018-08-17T13:44:38.000Z,1011.515
2018-08-17T13:54:38.000Z,1011.501
2018-08-17T14:04:38.000Z,1011.464
2018-08-17T14:14:38.000Z,1011.391
2018-08-17T14:24:38.000Z,1011.426
2018-08-17T14:34:38.000Z,1011.417
2018-08-17T14:44:38.000Z,1011.384
2018-08-17T14:54:38.000Z,1011.321
2018-08-17T15:04:38.000Z,1011.273
2018-08-17T15:14:38.000Z,1011.188
2018-08-17T15:24:38.000Z,1011.216
2018-08-17T15:34:38.000Z,1011.154
2018-08-17T15:44:38.000Z,1011.136
2018-08-17T15:54:38.000Z,1011.134
2018-08-17T16:04:38.000Z,1011.125
2018-08-17T16:14:38.000Z,1011.112
2018-08-17T16:24:38.000Z,1011.152
2018-08-17T16:34:38.000Z,1011.205
2018-08-17T16:44:38.000Z,1011.245
2018-08-17T16:54:38.000Z,1011.266
2018-08-17T17:04:38.000Z,1011.26
2018-08-17T17:14:38.000Z,1011.288
2018-08-17T17:24:38.000Z,1011.282
2018-08-17T17:44:39.000Z,1011.346
2018-08-17T17:54:39.000Z,1011.369
2018-08-17T18:04:39.000Z,1011.466
2018-08-17T18:14:39.000Z,1011.514
2018-08-17T18:24:39.000Z,1011.53
2018-08-17T18:34:39.000Z,1011.616
2018-08-17T18:44:39.000Z,1011.756
2018-08-17T18:54:39.000Z,1011.912
2018-08-17T19:04:39.000Z,1011.99
2018-08-17T19:14:39.000Z,1012.05
2018-08-17T19:24:39.000Z,1012.195
2018-08-17T19:34:39.000Z,1012.307
2018-08-17T19:44:39.000Z,1012.251
2018-08-17T19:54:39.000Z,1012.347
2018-08-17T20:04:39.000Z,1012.432
2018-08-17T20:14:39.000Z,1012.464
2018-08-17T20:24:39.000Z,1012.573
2018-08-17T20:34:39.000Z,1012.66
2018-08-17T20:44:39.000Z,1012.699
2018-08-17T20:54:39.000Z,1012.775
2018-08-17T21:04:39.000Z,1012.875
2018-08-17T21:14:39.000Z,1012.929
2018-08-17T21:24:39.000Z,1013.02
2018-08-17T21:34:39.000Z,1013.022
2018-08-17T21:44:39.000Z,1013.026
2018-08-17T21:54:39.000Z,1013.023
2018-08-17T22:04:41.000Z,1013.055
2018-08-17T22:14:40.000Z,1013.087
2018-08-17T22:24:39.000Z,1013.078
2018-08-17T22:34:39.000Z,1013.103
2018-08-17T22:44:39.000Z,1013.172
2018-08-17T22:54:39.000Z,1013.258
2018-08-17T23:04:39.000Z,1013.325
2018-08-17T23:14:39.000Z,1013.426
2018-08-17T23:24:39.000Z,1013.451
2018-08-17T23:34:39.000Z,1013.438
2018-08-17T23:44:39.000Z,1013.514
2018-08-17T23:54:39.000Z,1013.509
